Time;durP1;ratioP1;P1;durP2;ratioP2;P2;SDS_P1;SDS_P2;PMS_P1;PMS_P2;Temp;Humidity;BMP_temperature;BMP_pressure;BME280_temperature;BME280_humidity;BME280_pressure;Samples;Min_cycle;Max_cycle;Signal;HPM_P1;HPM_P2
2022/04/22 00:02:06;;;;;;;;;;;;;;;;;;2198003;59;1225;-70
2022/04/22 00:04:39;;;;;;;;;;;;;;;;;;2202885;67;1977;-70
2022/04/22 00:07:12;;;;;;;;;;;;;;;;;;2195865;67;1227;-71
2022/04/22 00:09:45;;;;;;;;;;;;;;;;;;2194875;67;1288;-71
2022/04/22 00:12:21;;;;;;;;;;;;;;;;;;2192836;59;2018;-70
2022/04/22 00:14:55;;;;;;;;;;;;;;;;;;2196204;67;1188;-70
2022/04/22 00:17:28;;;;;;;;;;;;;;;;;;2203123;67;1267;-70
2022/04/22 00:20:01;;;;;;;;;;;;;;;;;;2198833;59;1764;-71
2022/04/22 00:22:35;;;;;;;;;;;;;;;;;;2197894;59;1480;-71
2022/04/22 00:25:09;;;;;;;;;;;;;;;;;;2195751;59;1997;-71
2022/04/22 00:27:45;;;;;;;;;;;;;;;;;;2195036;59;1698;-71
2022/04/22 00:30:19;;;;;;;;;;;;;;;;;;2203129;59;1256;-71
2022/04/22 00:32:52;;;;;;;;;;;;;;;;;;2191309;59;2835;-71
2022/04/22 00:35:27;;;;;;;;;;;;;;;;;;2194708;59;2458;-71
2022/04/22 00:38:00;;;;;;;;;;;;;;;;;;2200600;59;2451;-71
2022/04/22 00:40:34;;;;;;;;;;;;;;;;;;2195508;59;2374;-71
2022/04/22 00:43:19;;;;;;;;;;;;;;;;;;2195068;59;2486;-71
2022/04/22 00:45:53;;;;;;;;;;;;;;;;;;2195033;59;2437;-71
2022/04/22 00:48:26;;;;;;;;;;;;;;;;;;2195670;59;2606;-71
2022/04/22 00:50:59;;;;;;;;;;;;;;;;;;2201334;59;2412;-71
2022/04/22 00:53:33;;;;;;;;;;;;;;;;;;2203443;59;2593;-70
2022/04/22 00:56:07;;;;;;;;;;;;;;;;;;2195851;59;2376;-71
2022/04/22 00:58:44;;;;;;;;;;;;;;;;;;2195020;59;2391;-71
2022/04/22 01:01:17;;;;;;;;;;;;;;;;;;2195551;59;2409;-71
2022/04/22 01:12:15;;;;;;;;;;;;;;;;;;2195176;59;2631;-71
2022/04/22 01:14:51;;;;;;;;;;;;;;;;;;2191439;59;2529;-70
2022/04/22 01:17:24;;;;;;;;;;;;;;;;;;2195389;59;1353;-71
2022/04/22 01:19:57;;;;;;;;;;;;;;;;;;2195264;59;2760;-70
2022/04/22 01:22:33;;;;;;;;;;;;;;;;;;2196487;59;1413;-71
2022/04/22 01:25:07;;;;;;;;;;;;;;;;;;2195652;59;1964;-71
2022/04/22 01:27:41;;;;;;;;;;;;;;;;;;2194786;59;2345;-71
2022/04/22 01:30:14;;;;;;;;;;;;;;;;;;2194924;59;2353;-71
2022/04/22 01:32:47;;;;;;;;;;;;;;;;;;2194648;59;2476;-71
2022/04/22 01:35:21;;;;;;;;;;;;;;;;;;2195336;59;2815;-71
2022/04/22 01:37:57;;;;;;;;;;;;;;;;;;2200869;59;2846;-71
2022/04/22 01:40:31;;;;;;;;;;;;;;;;;;2195098;59;2849;-71
2022/04/22 01:43:04;;;;;;;;;;;;;;;;;;2194717;59;2653;-71
2022/04/22 01:45:38;;;;;;;;;;;;;;;;;;2196106;59;1968;-71
2022/04/22 01:48:11;;;;;;;;;;;;;;;;;;2195833;59;2528;-71
2022/04/22 01:50:44;;;;;;;;;;;;;;;;;;2196102;59;2610;-71
2022/04/22 01:53:20;;;;;;;;;;;;;;;;;;2195111;59;2452;-71
2022/04/22 01:55:53;;;;;;;;;;;;;;;;;;2195584;59;2734;-71
2022/04/22 01:58:27;;;;;;;;;;;;;;;;;;2191723;59;2669;-70
2022/04/22 02:01:00;;;;;;;;;;;;;;;;;;2197099;59;1355;-71
2022/04/22 02:03:33;;;;;;;;;;;;;;;;;;2196896;67;1201;-70
2022/04/22 02:06:07;;;;;;;;;;;;;;;;;;2193832;59;2629;-71
2022/04/22 02:08:44;;;;;;;;;;;;;;;;;;2194211;59;2553;-71
2022/04/22 02:11:17;;;;;;;;;;;;;;;;;;2195360;59;2524;-70
2022/04/22 02:13:50;;;;;;;;;;;;;;;;;;2196176;59;2436;-71
2022/04/22 02:16:24;;;;;;;;;;;;;;;;;;2196271;59;1435;-71
2022/04/22 02:18:57;;;;;;;;;;;;;;;;;;2195277;59;1716;-70
2022/04/22 02:21:30;;;;;;;;;;;;;;;;;;2195008;59;1275;-70
2022/04/22 02:24:07;;;;;;;;;;;;;;;;;;2194588;67;1417;-70
2022/04/22 02:29:26;;;;;;;;;;;;;;;;;;2194237;59;1356;-70
2022/04/22 02:31:59;;;;;;;;;;;;;;;;;;2194922;67;1288;-70
2022/04/22 02:34:32;;;;;;;;;;;;;;;;;;2196629;67;1103;-72
2022/04/22 02:37:06;;;;;;;;;;;;;;;;;;2194957;67;1414;-71
2022/04/22 02:39:42;;;;;;;;;;;;;;;;;;2197124;59;1599;-71
2022/04/22 02:47:52;;;;;;;;;;;;;;;;;;2195922;59;1491;-71
2022/04/22 02:50:26;;;;;;;;;;;;;;;;;;2194466;67;1062;-71
2022/04/22 02:52:59;;;;;;;;;;;;;;;;;;2195943;59;1607;-71
2022/04/22 02:55:38;;;;;;;;;;;;;;;;;;2198018;67;1139;-70
2022/04/22 02:58:11;;;;;;;;;;;;;;;;;;2202800;59;1756;-71
2022/04/22 03:00:45;;;;;;;;;;;;;;;;;;2194667;59;1190;-72
2022/04/22 03:03:18;;;;;;;;;;;;;;;;;;2198017;67;1204;-70
2022/04/22 03:05:53;;;;;;;;;;;;;;;;;;2195002;59;1922;-70
2022/04/22 03:08:26;;;;;;;;;;;;;;;;;;2201586;67;1239;-71
2022/04/22 03:11:02;;;;;;;;;;;;;;;;;;2194703;67;1098;-70
2022/04/22 03:13:36;;;;;;;;;;;;;;;;;;2194981;59;1594;-70
2022/04/22 03:16:09;;;;;;;;;;;;;;;;;;2195185;59;1099;-71
2022/04/22 03:18:42;;;;;;;;;;;;;;;;;;2195881;59;1862;-70
2022/04/22 03:21:15;;;;;;;;;;;;;;;;;;2197869;67;1218;-70
2022/04/22 03:23:48;;;;;;;;;;;;;;;;;;2193234;67;1418;-70
2022/04/22 03:26:24;;;;;;;;;;;;;;;;;;2195145;59;1993;-71
2022/04/22 03:28:58;;;;;;;;;;;;;;;;;;2201792;67;1442;-71
2022/04/22 03:31:31;;;;;;;;;;;;;;;;;;2202384;67;1210;-70
2022/04/22 03:34:05;;;;;;;;;;;;;;;;;;2199483;67;1216;-71
2022/04/22 03:36:38;;;;;;;;;;;;;;;;;;2196700;67;1228;-70
2022/04/22 03:39:11;;;;;;;;;;;;;;;;;;2199352;59;1803;-74
2022/04/22 03:41:47;;;;;;;;;;;;;;;;;;2198520;67;1429;-71
2022/04/22 03:44:20;;;;;;;;;;;;;;;;;;2197428;67;1429;-70
2022/04/22 03:46:54;;;;;;;;;;;;;;;;;;2196558;59;1977;-71
2022/04/22 03:49:27;;;;;;;;;;;;;;;;;;2195824;59;1629;-70
2022/04/22 03:52:00;;;;;;;;;;;;;;;;;;2194968;67;1090;-71
2022/04/22 03:54:33;;;;;;;;;;;;;;;;;;2195192;67;1290;-70
2022/04/22 03:59:58;;;;;;;;;;;;;;;;;;2196774;59;1939;-71
2022/04/22 04:02:33;;;;;;;;;;;;;;;;;;2195675;59;1824;-70
2022/04/22 04:05:07;;;;;;;;;;;;;;;;;;2197219;67;1253;-70
2022/04/22 04:07:40;;;;;;;;;;;;;;;;;;2196447;59;1928;-72
2022/04/22 04:16:02;;;;;;;;;;;;;;;;;;2197804;59;1576;-71
2022/04/22 04:18:37;;;;;;;;;;;;;;;;;;2196070;59;1669;-70
2022/04/22 04:23:59;;;;;;;;;;;;;;;;;;2200191;59;1133;-70
2022/04/22 04:26:33;;;;;;;;;;;;;;;;;;2195529;59;1942;-70
2022/04/22 04:29:09;;;;;;;;;;;;;;;;;;2195740;59;1362;-71
2022/04/22 04:31:42;;;;;;;;;;;;;;;;;;2195889;67;1089;-71
2022/04/22 04:34:16;;;;;;;;;;;;;;;;;;2195823;67;1267;-70
2022/04/22 04:36:49;;;;;;;;;;;;;;;;;;2196492;67;1336;-71
2022/04/22 04:39:22;;;;;;;;;;;;;;;;;;2194932;59;1852;-70
2022/04/22 04:41:56;;;;;;;;;;;;;;;;;;2194670;60;1254;-70
2022/04/22 04:44:33;;;;;;;;;;;;;;;;;;2202489;67;1195;-71
2022/04/22 04:47:06;;;;;;;;;;;;;;;;;;2201009;59;2009;-71
2022/04/22 04:49:39;;;;;;;;;;;;;;;;;;2196154;59;1456;-71
2022/04/22 04:52:12;;;;;;;;;;;;;;;;;;2195850;67;1228;-70
2022/04/22 04:54:46;;;;;;;;;;;;;;;;;;2192528;67;1326;-71
2022/04/22 04:57:19;;;;;;;;;;;;;;;;;;2195692;67;1199;-71
2022/04/22 04:59:55;;;;;;;;;;;;;;;;;;2196929;59;2049;-70
2022/04/22 05:02:28;;;;;;;;;;;;;;;;;;2196354;59;1250;-71
2022/04/22 05:05:02;;;;;;;;;;;;;;;;;;2198075;59;1714;-71
2022/04/22 05:07:35;;;;;;;;;;;;;;;;;;2197632;67;1925;-71
2022/04/22 05:10:09;;;;;;;;;;;;;;;;;;2195419;59;1562;-70
2022/04/22 05:12:42;;;;;;;;;;;;;;;;;;2195656;59;1255;-70
2022/04/22 05:15:19;;;;;;;;;;;;;;;;;;2195700;67;1207;-70
2022/04/22 05:17:53;;;;;;;;;;;;;;;;;;2194948;59;1584;-71
2022/04/22 05:20:27;;;;;;;;;;;;;;;;;;2193897;59;1854;-71
2022/04/22 05:23:01;;;;;;;;;;;;;;;;;;2195617;67;1223;-71
2022/04/22 05:25:34;;;;;;;;;;;;;;;;;;2202556;67;1189;-70
2022/04/22 05:28:08;;;;;;;;;;;;;;;;;;2202631;59;1929;-71
2022/04/22 05:33:33;;;;;;;;;;;;;;;;;;2195508;67;1086;-71
2022/04/22 05:36:07;;;;;;;;;;;;;;;;;;2196576;67;1050;-71
2022/04/22 05:38:41;;;;;;;;;;;;;;;;;;2198001;59;1791;-71
2022/04/22 05:41:14;;;;;;;;;;;;;;;;;;2195323;67;1147;-70
2022/04/22 05:43:47;;;;;;;;;;;;;;;;;;2202174;67;1342;-70
2022/04/22 05:46:23;;;;;;;;;;;;;;;;;;2195541;59;1914;-71
2022/04/22 05:48:56;;;;;;;;;;;;;;;;;;2196112;59;1699;-71
2022/04/22 05:51:30;;;;;;;;;;;;;;;;;;2195668;59;1273;-70
2022/04/22 05:54:03;;;;;;;;;;;;;;;;;;2198970;59;1551;-70
2022/04/22 05:56:36;;;;;;;;;;;;;;;;;;2195752;67;1112;-70
2022/04/22 05:59:09;;;;;;;;;;;;;;;;;;2194872;59;1841;-71
2022/04/22 06:01:45;;;;;;;;;;;;;;;;;;2196349;59;1472;-70
2022/04/22 06:04:19;;;;;;;;;;;;;;;;;;2195622;59;1959;-71
2022/04/22 06:06:52;;;;;;;;;;;;;;;;;;2194952;59;1933;-70
2022/04/22 06:12:14;;;;;;;;;;;;;;;;;;2197209;59;1168;-71
2022/04/22 06:14:48;;;;;;;;;;;;;;;;;;2195375;67;1158;-71
2022/04/22 06:17:24;;;;;;;;;;;;;;;;;;2198723;60;1205;-71
2022/04/22 06:19:57;;;;;;;;;;;;;;;;;;2195293;59;2048;-71
2022/04/22 06:22:31;;;;;;;;;;;;;;;;;;2194650;67;1176;-71
2022/04/22 06:25:04;;;;;;;;;;;;;;;;;;2205669;67;1280;-70
2022/04/22 06:27:38;;;;;;;;;;;;;;;;;;2195734;59;1937;-71
2022/04/22 06:30:13;;;;;;;;;;;;;;;;;;2195211;59;1300;-71
2022/04/22 06:32:50;;;;;;;;;;;;;;;;;;2192205;59;1492;-70
2022/04/22 06:35:23;;;;;;;;;;;;;;;;;;2195451;59;1231;-70
2022/04/22 06:37:57;;;;;;;;;;;;;;;;;;2195876;59;1270;-71
2022/04/22 06:46:09;;;;;;;;;;;;;;;;;;2198477;59;1391;-71
2022/04/22 06:48:46;;;;;;;;;;;;;;;;;;2202962;59;1926;-71
2022/04/22 06:51:20;;;;;;;;;;;;;;;;;;2195812;59;1754;-71
2022/04/22 06:53:53;;;;;;;;;;;;;;;;;;2195697;67;1303;-71
2022/04/22 06:56:29;;;;;;;;;;;;;;;;;;2196030;67;1122;-71
2022/04/22 06:59:02;;;;;;;;;;;;;;;;;;2200647;59;2028;-69
2022/04/22 07:01:36;;;;;;;;;;;;;;;;;;2198497;59;1331;-69
2022/04/22 07:04:13;;;;;;;;;;;;;;;;;;2204249;59;1230;-69
2022/04/22 07:06:47;;;;;;;;;;;;;;;;;;2198832;59;1937;-69
2022/04/22 07:09:21;;;;;;;;;;;;;;;;;;2207700;66;1183;-69
2022/04/22 07:11:54;;;;;;;;;;;;;;;;;;2205259;59;1288;-69
2022/04/22 07:14:29;;;;;;;;;;;;;;;;;;2203012;59;1443;-69
2022/04/22 07:17:02;;;;;;;;;;;;;;;;;;2202236;59;1703;-69
2022/04/22 07:19:41;;;;;;;;;;;;;;;;;;2203520;59;1728;-69
2022/04/22 07:22:14;;;;;;;;;;;;;;;;;;2203592;66;1220;-69
2022/04/22 07:24:48;;;;;;;;;;;;;;;;;;2200533;59;1272;-69
2022/04/22 07:27:21;;;;;;;;;;;;;;;;;;2200294;67;1991;-69
2022/04/22 07:29:55;;;;;;;;;;;;;;;;;;2202205;59;1558;-69
2022/04/22 07:32:29;;;;;;;;;;;;;;;;;;2208793;59;1331;-69
2022/04/22 07:35:05;;;;;;;;;;;;;;;;;;2207619;59;1183;-69
2022/04/22 07:37:38;;;;;;;;;;;;;;;;;;2202326;67;1312;-69
2022/04/22 07:40:12;;;;;;;;;;;;;;;;;;2205447;59;1940;-69
2022/04/22 07:46:46;;;;;;;;;;;;;;;;;;2196918;58;2056;-69
2022/04/22 07:48:33;;;;;;;;;;;;;;;;;;2200856;59;1979;-69
2022/04/22 07:51:09;;;;;;;;;;;;;;;;;;2200586;59;1616;-69
2022/04/22 07:53:42;;;;;;;;;;;;;;;;;;2197072;59;2665;-70
2022/04/22 07:56:15;;;;;;;;;;;;;;;;;;2195737;59;2114;-69
2022/04/22 07:58:48;;;;;;;;;;;;;;;;;;2200878;58;1782;-69
2022/04/22 08:01:22;;;;;;;;;;;;;;;;;;2208070;59;1654;-69
2022/04/22 08:03:58;;;;;;;;;;;;;;;;;;2204488;66;1277;-69
2022/04/22 08:06:34;;;;;;;;;;;;;;;;;;2206431;59;1601;-69
2022/04/22 08:09:07;;;;;;;;;;;;;;;;;;2203663;59;1920;-69
2022/04/22 08:11:42;;;;;;;;;;;;;;;;;;2210261;66;1210;-69
2022/04/22 08:14:15;;;;;;;;;;;;;;;;;;2200394;59;1335;-69
2022/04/22 08:16:48;;;;;;;;;;;;;;;;;;2211290;66;1247;-70
2022/04/22 08:19:21;;;;;;;;;;;;;;;;;;2206516;59;1656;-69
2022/04/22 08:21:57;;;;;;;;;;;;;;;;;;2199314;59;1592;-69
2022/04/22 08:24:31;;;;;;;;;;;;;;;;;;2207531;59;1210;-69
2022/04/22 08:27:04;;;;;;;;;;;;;;;;;;2204338;59;1488;-69
2022/04/22 08:29:37;;;;;;;;;;;;;;;;;;2200915;59;1929;-69
2022/04/22 08:32:11;;;;;;;;;;;;;;;;;;2200249;67;1195;-69
2022/04/22 08:34:44;;;;;;;;;;;;;;;;;;2200448;59;1123;-69
2022/04/22 08:37:20;;;;;;;;;;;;;;;;;;2199806;59;1661;-69
2022/04/22 08:39:55;;;;;;;;;;;;;;;;;;2205036;59;1921;-69
2022/04/22 08:42:28;;;;;;;;;;;;;;;;;;2203245;66;1294;-70
2022/04/22 08:45:01;;;;;;;;;;;;;;;;;;2208928;60;1016;-70
2022/04/22 08:50:23;;;;;;;;;;;;;;;;;;2206021;66;1247;-69
2022/04/22 08:53:00;;;;;;;;;;;;;;;;;;2200956;59;2592;-70
2022/04/22 08:55:36;;;;;;;;;;;;;;;;;;2205380;59;2656;-70
2022/04/22 08:58:09;;;;;;;;;;;;;;;;;;2208199;59;1485;-69
2022/04/22 09:00:42;;;;;;;;;;;;;;;;;;2205052;59;1875;-70
2022/04/22 09:03:17;;;;;;;;;;;;;;;;;;2202379;59;1747;-69
2022/04/22 09:05:50;;;;;;;;;;;;;;;;;;2204804;59;1767;-70
2022/04/22 09:08:28;;;;;;;;;;;;;;;;;;2208928;59;2019;-70
2022/04/22 09:11:04;;;;;;;;;;;;;;;;;;2206781;60;1234;-70
2022/04/22 09:13:38;;;;;;;;;;;;;;;;;;2206818;66;1310;-71
2022/04/22 09:16:11;;;;;;;;;;;;;;;;;;2203393;66;1139;-70
2022/04/22 09:18:44;;;;;;;;;;;;;;;;;;2200185;59;1840;-70
2022/04/22 09:21:18;;;;;;;;;;;;;;;;;;2201923;66;1212;-70
2022/04/22 09:23:54;;;;;;;;;;;;;;;;;;2200833;59;1274;-69
2022/04/22 09:26:30;;;;;;;;;;;;;;;;;;2202696;59;1324;-70
2022/04/22 09:29:05;;;;;;;;;;;;;;;;;;2204528;59;1972;-69
2022/04/22 09:31:47;;;;;;;;;;;;;;;;;;2201396;59;1053;-69
2022/04/22 09:34:35;;;;;;;;;;;;;;;;;;2200264;67;1254;-70
2022/04/22 09:43:00;;;;;;;;;;;;;;;;;;2203445;66;1073;-70
2022/04/22 09:45:38;;;;;;;;;;;;;;;;;;2197831;67;1282;-70
2022/04/22 09:48:15;;;;;;;;;;;;;;;;;;2198888;59;1926;-70
2022/04/22 09:50:52;;;;;;;;;;;;;;;;;;2199745;67;1200;-70
2022/04/22 09:53:34;;;;;;;;;;;;;;;;;;2199585;67;1178;-70
2022/04/22 09:56:11;;;;;;;;;;;;;;;;;;2203852;59;2931;-70
2022/04/22 09:58:44;;;;;;;;;;;;;;;;;;2203599;59;1970;-70
2022/04/22 10:01:18;;;;;;;;;;;;;;;;;;2200537;59;1613;-70
2022/04/22 10:03:51;;;;;;;;;;;;;;;;;;2200476;66;1279;-70
2022/04/22 10:06:25;;;;;;;;;;;;;;;;;;2212653;58;1243;-70
2022/04/22 10:08:58;;;;;;;;;;;;;;;;;;2197051;59;1925;-70
2022/04/22 10:11:34;;;;;;;;;;;;;;;;;;2199161;67;1273;-70
2022/04/22 10:14:10;;;;;;;;;;;;;;;;;;2200690;66;1413;-70
2022/04/22 10:16:43;;;;;;;;;;;;;;;;;;2212475;66;1111;-70
2022/04/22 10:19:17;;;;;;;;;;;;;;;;;;2197905;59;1644;-70
2022/04/22 10:21:51;;;;;;;;;;;;;;;;;;2199775;67;1262;-70
2022/04/22 10:24:25;;;;;;;;;;;;;;;;;;2198385;67;1178;-70
2022/04/22 10:27:01;;;;;;;;;;;;;;;;;;2199948;59;1252;-69
2022/04/22 10:29:36;;;;;;;;;;;;;;;;;;2206749;59;1986;-70
2022/04/22 10:32:10;;;;;;;;;;;;;;;;;;2203298;59;1195;-70
2022/04/22 10:34:44;;;;;;;;;;;;;;;;;;2200173;67;1175;-70
2022/04/22 10:37:19;;;;;;;;;;;;;;;;;;2205549;66;1069;-70
2022/04/22 10:39:53;;;;;;;;;;;;;;;;;;2202751;59;1615;-70
2022/04/22 10:42:36;;;;;;;;;;;;;;;;;;2200195;59;1788;-70
2022/04/22 10:48:00;;;;;;;;;;;;;;;;;;2201322;59;2071;-70
2022/04/22 10:50:34;;;;;;;;;;;;;;;;;;2208502;66;1187;-70
2022/04/22 10:53:08;;;;;;;;;;;;;;;;;;2203283;59;1676;-71
2022/04/22 10:55:42;;;;;;;;;;;;;;;;;;2208376;59;2499;-70
2022/04/22 10:58:27;;;;;;;;;;;;;;;;;;2203098;59;2728;-71
2022/04/22 11:01:00;;;;;;;;;;;;;;;;;;2206420;59;1316;-70
2022/04/22 11:03:35;;;;;;;;;;;;;;;;;;2208522;66;1092;-70
2022/04/22 11:06:09;;;;;;;;;;;;;;;;;;2201535;59;2050;-71
2022/04/22 11:08:43;;;;;;;;;;;;;;;;;;2204216;66;1920;-69
2022/04/22 11:11:20;;;;;;;;;;;;;;;;;;2200358;67;1128;-70
2022/04/22 11:13:56;;;;;;;;;;;;;;;;;;2203199;59;1342;-70
2022/04/22 11:16:30;;;;;;;;;;;;;;;;;;2201104;66;1123;-70
2022/04/22 11:19:18;;;;;;;;;;;;;;;;;;2201825;59;1730;-70
2022/04/22 11:21:53;;;;;;;;;;;;;;;;;;2202139;59;1762;-71
2022/04/22 11:24:27;;;;;;;;;;;;;;;;;;2209758;66;1335;-70
2022/04/22 11:27:08;;;;;;;;;;;;;;;;;;2203666;59;1314;-70
2022/04/22 11:29:44;;;;;;;;;;;;;;;;;;2203453;66;1988;-70
2022/04/22 11:32:22;;;;;;;;;;;;;;;;;;2200262;67;1277;-70
2022/04/22 11:35:13;;;;;;;;;;;;;;;;;;2212635;59;1659;-70
2022/04/22 11:37:46;;;;;;;;;;;;;;;;;;2210970;66;1199;-70
2022/04/22 11:40:21;;;;;;;;;;;;;;;;;;2204680;59;2082;-71
2022/04/22 11:42:54;;;;;;;;;;;;;;;;;;2202062;59;1431;-69
2022/04/22 11:45:30;;;;;;;;;;;;;;;;;;2202829;59;1699;-70
2022/04/22 11:48:09;;;;;;;;;;;;;;;;;;2202341;59;1710;-70
2022/04/22 11:50:42;;;;;;;;;;;;;;;;;;2200257;59;1952;-70
2022/04/22 11:53:16;;;;;;;;;;;;;;;;;;2205810;59;1978;-70
2022/04/22 11:55:50;;;;;;;;;;;;;;;;;;2200498;59;2497;-70
2022/04/22 11:58:24;;;;;;;;;;;;;;;;;;2202352;59;2251;-70
2022/04/22 12:06:43;;;;;;;;;;;;;;;;;;2207385;66;1046;-70
2022/04/22 12:09:17;;;;;;;;;;;;;;;;;;2199977;59;1917;-71
2022/04/22 12:11:52;;;;;;;;;;;;;;;;;;2203103;59;1271;-70
2022/04/22 12:14:27;;;;;;;;;;;;;;;;;;2203150;59;1592;-70
2022/04/22 12:17:04;;;;;;;;;;;;;;;;;;2210172;59;1230;-70
2022/04/22 12:19:37;;;;;;;;;;;;;;;;;;2203396;59;2159;-70
2022/04/22 12:22:12;;;;;;;;;;;;;;;;;;2202158;66;1135;-69
2022/04/22 12:25:00;;;;;;;;;;;;;;;;;;2207214;59;1266;-70
2022/04/22 12:27:33;;;;;;;;;;;;;;;;;;2200848;59;1704;-71
2022/04/22 12:30:08;;;;;;;;;;;;;;;;;;2198058;59;1924;-70
2022/04/22 12:32:54;;;;;;;;;;;;;;;;;;2200935;59;1101;-70
2022/04/22 12:35:27;;;;;;;;;;;;;;;;;;2202304;59;1876;-70
2022/04/22 12:38:05;;;;;;;;;;;;;;;;;;2201148;59;1465;-70
2022/04/22 12:40:48;;;;;;;;;;;;;;;;;;2201025;59;2129;-70
2022/04/22 12:43:27;;;;;;;;;;;;;;;;;;2206094;66;1171;-70
2022/04/22 12:52:12;;;;;;;;;;;;;;;;;;2208694;66;1147;-70
2022/04/22 12:54:48;;;;;;;;;;;;;;;;;;2209233;66;1120;-69
2022/04/22 12:57:22;;;;;;;;;;;;;;;;;;2201706;59;2541;-70
2022/04/22 12:59:56;;;;;;;;;;;;;;;;;;2205714;54;3623;-70
2022/04/22 13:02:32;;;;;;;;;;;;;;;;;;2199386;59;2035;-69
2022/04/22 13:05:09;;;;;;;;;;;;;;;;;;2201427;59;1832;-69
2022/04/22 13:07:44;;;;;;;;;;;;;;;;;;2202256;59;1391;-70
2022/04/22 13:10:19;;;;;;;;;;;;;;;;;;2202625;59;1939;-69
2022/04/22 13:12:53;;;;;;;;;;;;;;;;;;2202099;59;1287;-69
2022/04/22 13:15:26;;;;;;;;;;;;;;;;;;2202891;59;1643;-69
2022/04/22 13:17:59;;;;;;;;;;;;;;;;;;2203459;58;1084;-70
2022/04/22 13:20:35;;;;;;;;;;;;;;;;;;2202382;59;1537;-69
2022/04/22 13:23:08;;;;;;;;;;;;;;;;;;2203025;59;2008;-69
2022/04/22 13:25:51;;;;;;;;;;;;;;;;;;2220743;58;1749;-69
2022/04/22 13:28:25;;;;;;;;;;;;;;;;;;2217469;67;1193;-69
2022/04/22 13:30:58;;;;;;;;;;;;;;;;;;2213276;59;1437;-69
2022/04/22 13:33:32;;;;;;;;;;;;;;;;;;2210551;59;2079;-69
2022/04/22 13:36:07;;;;;;;;;;;;;;;;;;2214969;59;1144;-69
2022/04/22 13:38:43;;;;;;;;;;;;;;;;;;2213294;59;1911;-69
2022/04/22 13:41:19;;;;;;;;;;;;;;;;;;2210988;59;1231;-69
2022/04/22 13:43:52;;;;;;;;;;;;;;;;;;2213290;67;1930;-69
2022/04/22 13:54:52;;;;;;;;;;;;;;;;;;2213892;67;1123;-68
2022/04/22 13:57:28;;;;;;;;;;;;;;;;;;2213956;59;1213;-69
2022/04/22 14:00:01;;;;;;;;;;;;;;;;;;2212950;59;2534;-69
2022/04/22 14:02:35;;;;;;;;;;;;;;;;;;2217697;59;1697;-71
2022/04/22 14:05:08;;;;;;;;;;;;;;;;;;2212590;59;1925;-69
2022/04/22 14:07:41;;;;;;;;;;;;;;;;;;2208533;59;1262;-69
2022/04/22 14:10:14;;;;;;;;;;;;;;;;;;2212517;67;1220;-68
2022/04/22 14:12:50;;;;;;;;;;;;;;;;;;2212731;59;1289;-71
2022/04/22 14:15:25;;;;;;;;;;;;;;;;;;2211750;59;1137;-71
2022/04/22 14:17:58;;;;;;;;;;;;;;;;;;2212889;59;1456;-71
2022/04/22 14:20:32;;;;;;;;;;;;;;;;;;2211150;59;1642;-71
2022/04/22 14:23:05;;;;;;;;;;;;;;;;;;2207606;59;1674;-71
2022/04/22 14:25:38;;;;;;;;;;;;;;;;;;2213480;59;1931;-71
2022/04/22 14:28:14;;;;;;;;;;;;;;;;;;2215922;66;1332;-71
2022/04/22 14:30:47;;;;;;;;;;;;;;;;;;2212890;59;1449;-71
2022/04/22 14:33:21;;;;;;;;;;;;;;;;;;2212325;66;1214;-71
2022/04/22 14:35:54;;;;;;;;;;;;;;;;;;2209594;59;1461;-71
2022/04/22 14:38:27;;;;;;;;;;;;;;;;;;2210300;66;1210;-71
2022/04/22 14:41:00;;;;;;;;;;;;;;;;;;2213509;59;2099;-71
2022/04/22 14:43:36;;;;;;;;;;;;;;;;;;2211725;59;1240;-71
2022/04/22 14:46:09;;;;;;;;;;;;;;;;;;2213528;66;1237;-71
2022/04/22 14:48:42;;;;;;;;;;;;;;;;;;2212715;58;1243;-71
2022/04/22 14:51:15;;;;;;;;;;;;;;;;;;2219291;66;1288;-71
2022/04/22 14:53:49;;;;;;;;;;;;;;;;;;2222157;66;1170;-71
2022/04/22 14:56:22;;;;;;;;;;;;;;;;;;2215113;66;1131;-71
2022/04/22 14:58:58;;;;;;;;;;;;;;;;;;2219720;59;2724;-71
2022/04/22 15:01:31;;;;;;;;;;;;;;;;;;2210835;59;2674;-72
2022/04/22 15:04:06;;;;;;;;;;;;;;;;;;2212645;59;1941;-71
2022/04/22 15:06:39;;;;;;;;;;;;;;;;;;2212324;66;1155;-71
2022/04/22 15:09:14;;;;;;;;;;;;;;;;;;2211735;59;1416;-71
2022/04/22 15:11:47;;;;;;;;;;;;;;;;;;2211768;66;1282;-70
2022/04/22 15:14:23;;;;;;;;;;;;;;;;;;2209101;59;1226;-71
2022/04/22 15:16:57;;;;;;;;;;;;;;;;;;2210704;59;1681;-69
2022/04/22 15:25:08;;;;;;;;;;;;;;;;;;2212450;59;1925;-69
2022/04/22 15:27:41;;;;;;;;;;;;;;;;;;2212188;66;1268;-69
2022/04/22 15:30:17;;;;;;;;;;;;;;;;;;2219590;59;1414;-69
2022/04/22 15:32:50;;;;;;;;;;;;;;;;;;2208259;66;1522;-68
2022/04/22 15:35:25;;;;;;;;;;;;;;;;;;2213085;59;1815;-69
2022/04/22 15:37:59;;;;;;;;;;;;;;;;;;2211742;66;1228;-69
2022/04/22 15:40:32;;;;;;;;;;;;;;;;;;2211438;59;1610;-70
2022/04/22 15:43:05;;;;;;;;;;;;;;;;;;2213325;59;1454;-69
2022/04/22 15:45:41;;;;;;;;;;;;;;;;;;2218164;58;1982;-69
2022/04/22 15:48:14;;;;;;;;;;;;;;;;;;2208132;59;1776;-69
2022/04/22 15:50:47;;;;;;;;;;;;;;;;;;2214159;59;1649;-69
2022/04/22 15:53:21;;;;;;;;;;;;;;;;;;2210182;59;1720;-69
2022/04/22 15:55:54;;;;;;;;;;;;;;;;;;2208578;59;1759;-69
2022/04/22 15:58:28;;;;;;;;;;;;;;;;;;2208225;59;1898;-69
2022/04/22 16:01:04;;;;;;;;;;;;;;;;;;2209299;59;2545;-69
2022/04/22 16:03:38;;;;;;;;;;;;;;;;;;2213310;58;2245;-71
2022/04/22 16:06:11;;;;;;;;;;;;;;;;;;2210843;59;1929;-70
2022/04/22 16:08:44;;;;;;;;;;;;;;;;;;2213648;66;1230;-70
2022/04/22 16:17:02;;;;;;;;;;;;;;;;;;2208212;59;1775;-70
2022/04/22 16:19:35;;;;;;;;;;;;;;;;;;2212248;59;1581;-70
2022/04/22 16:22:08;;;;;;;;;;;;;;;;;;2215230;59;1863;-70
2022/04/22 16:24:42;;;;;;;;;;;;;;;;;;2210408;59;1962;-71
2022/04/22 16:27:15;;;;;;;;;;;;;;;;;;2215884;66;1217;-71
2022/04/22 16:29:48;;;;;;;;;;;;;;;;;;2215507;59;1419;-70
2022/04/22 16:32:24;;;;;;;;;;;;;;;;;;2212101;59;1221;-70
2022/04/22 16:34:57;;;;;;;;;;;;;;;;;;2220048;66;1163;-70
2022/04/22 16:37:30;;;;;;;;;;;;;;;;;;2222536;59;1154;-71
2022/04/22 16:40:03;;;;;;;;;;;;;;;;;;2214020;59;1897;-70
2022/04/22 16:42:38;;;;;;;;;;;;;;;;;;2210497;59;1135;-70
2022/04/22 16:45:12;;;;;;;;;;;;;;;;;;2213234;59;1932;-70
2022/04/22 16:47:48;;;;;;;;;;;;;;;;;;2212257;59;1726;-71
2022/04/22 16:50:22;;;;;;;;;;;;;;;;;;2217423;60;1285;-70
2022/04/22 16:52:55;;;;;;;;;;;;;;;;;;2217533;66;1173;-70
2022/04/22 16:55:28;;;;;;;;;;;;;;;;;;2213559;59;1183;-70
2022/04/22 16:58:01;;;;;;;;;;;;;;;;;;2211915;66;1273;-70
2022/04/22 17:00:34;;;;;;;;;;;;;;;;;;2214170;59;1866;-70
2022/04/22 17:03:10;;;;;;;;;;;;;;;;;;2209877;59;2997;-70
2022/04/22 17:05:44;;;;;;;;;;;;;;;;;;2210270;66;1945;-70
2022/04/22 17:08:18;;;;;;;;;;;;;;;;;;2211770;59;1700;-70
2022/04/22 17:10:51;;;;;;;;;;;;;;;;;;2214470;59;1471;-70
2022/04/22 17:13:24;;;;;;;;;;;;;;;;;;2214041;59;1667;-70
2022/04/22 17:24:26;;;;;;;;;;;;;;;;;;2213845;58;1231;-70
2022/04/22 17:26:59;;;;;;;;;;;;;;;;;;2212916;66;1142;-70
2022/04/22 17:29:33;;;;;;;;;;;;;;;;;;2210473;59;1437;-71
2022/04/22 17:32:06;;;;;;;;;;;;;;;;;;2211180;66;1073;-70
2022/04/22 17:34:42;;;;;;;;;;;;;;;;;;2220991;66;1068;-70
2022/04/22 17:37:15;;;;;;;;;;;;;;;;;;2213243;59;1183;-70
2022/04/22 17:39:48;;;;;;;;;;;;;;;;;;2209293;59;1746;-70
2022/04/22 17:42:22;;;;;;;;;;;;;;;;;;2209881;59;1748;-71
2022/04/22 17:44:55;;;;;;;;;;;;;;;;;;2209206;59;1941;-70
2022/04/22 17:47:28;;;;;;;;;;;;;;;;;;2210289;59;1615;-70
2022/04/22 17:50:04;;;;;;;;;;;;;;;;;;2211262;66;1242;-70
2022/04/22 17:52:37;;;;;;;;;;;;;;;;;;2214009;59;1890;-70
2022/04/22 17:55:11;;;;;;;;;;;;;;;;;;2212309;59;2100;-70
2022/04/22 17:57:44;;;;;;;;;;;;;;;;;;2213176;59;1547;-70
2022/04/22 18:00:18;;;;;;;;;;;;;;;;;;2209694;59;1674;-70
2022/04/22 18:02:52;;;;;;;;;;;;;;;;;;2209910;59;2128;-70
2022/04/22 18:05:28;;;;;;;;;;;;;;;;;;2209553;66;2347;-71
2022/04/22 18:08:04;;;;;;;;;;;;;;;;;;2208625;59;1687;-70
2022/04/22 18:10:37;;;;;;;;;;;;;;;;;;2205202;59;1795;-70
2022/04/22 18:13:12;;;;;;;;;;;;;;;;;;2205962;59;1962;-70
2022/04/22 18:18:34;;;;;;;;;;;;;;;;;;2205575;59;1992;-70
2022/04/22 18:21:10;;;;;;;;;;;;;;;;;;2205483;59;1652;-70
2022/04/22 18:23:44;;;;;;;;;;;;;;;;;;2204959;59;1994;-70
2022/04/22 18:26:17;;;;;;;;;;;;;;;;;;2211147;59;1932;-70
2022/04/22 18:28:51;;;;;;;;;;;;;;;;;;2213034;59;1346;-70
2022/04/22 18:31:24;;;;;;;;;;;;;;;;;;2209673;59;1182;-70
2022/04/22 18:33:57;;;;;;;;;;;;;;;;;;2212009;59;1201;-70
2022/04/22 18:36:33;;;;;;;;;;;;;;;;;;2218269;59;1654;-71
2022/04/22 18:39:07;;;;;;;;;;;;;;;;;;2212312;59;1524;-70
2022/04/22 18:41:40;;;;;;;;;;;;;;;;;;2211566;66;1091;-70
2022/04/22 18:44:13;;;;;;;;;;;;;;;;;;2207454;59;2255;-70
2022/04/22 18:46:46;;;;;;;;;;;;;;;;;;2210067;66;1937;-70
2022/04/22 18:49:20;;;;;;;;;;;;;;;;;;2210026;59;1275;-70
2022/04/22 18:51:58;;;;;;;;;;;;;;;;;;2221166;59;1255;-70
2022/04/22 18:54:32;;;;;;;;;;;;;;;;;;2226202;66;1189;-70
2022/04/22 18:57:06;;;;;;;;;;;;;;;;;;2223089;66;1084;-70
2022/04/22 18:59:39;;;;;;;;;;;;;;;;;;2220917;53;1820;-70
2022/04/22 19:02:13;;;;;;;;;;;;;;;;;;2215689;58;1297;-70
2022/04/22 19:04:46;;;;;;;;;;;;;;;;;;2215709;58;2672;-70
2022/04/22 19:07:22;;;;;;;;;;;;;;;;;;2211887;59;1949;-70
2022/04/22 19:09:55;;;;;;;;;;;;;;;;;;2218323;66;1243;-70
2022/04/22 19:12:30;;;;;;;;;;;;;;;;;;2218494;59;1311;-70
2022/04/22 19:15:04;;;;;;;;;;;;;;;;;;2218195;59;1185;-70
2022/04/22 19:17:37;;;;;;;;;;;;;;;;;;2217624;59;1200;-71
2022/04/22 19:20:11;;;;;;;;;;;;;;;;;;2217689;58;1774;-70
2022/04/22 19:22:46;;;;;;;;;;;;;;;;;;2216641;66;1194;-70
2022/04/22 19:25:21;;;;;;;;;;;;;;;;;;2219001;66;1965;-70
2022/04/22 19:27:54;;;;;;;;;;;;;;;;;;2217673;58;1521;-70
2022/04/22 19:30:27;;;;;;;;;;;;;;;;;;2219016;66;1480;-70